Time;durP1;ratioP1;P1;durP2;ratioP2;P2;SDS_P1;SDS_P2;PMS_P1;PMS_P2;Temp;Humidity;BMP_temperature;BMP_pressure;BME280_temperature;BME280_humidity;BME280_pressure;Samples;Min_cycle;Max_cycle;Signal;HPM_P1;HPM_P2
2022/04/05 00:01:21;;;;;;;8.88;7.63;;;7.60;99.90;;;;;;5097919;28;20020;-46
2022/04/05 00:03:47;;;;;;;9.30;7.47;;;7.60;99.90;;;;;;5097416;28;20028;-46
2022/04/05 00:06:12;;;;;;;7.72;6.85;;;7.60;99.90;;;;;;5097403;28;20479;-51
2022/04/05 00:08:38;;;;;;;10.35;7.57;;;7.60;99.90;;;;;;5115356;28;20046;-48
2022/04/05 00:11:03;;;;;;;7.28;6.20;;;7.60;99.90;;;;;;5115741;28;20073;-45
2022/04/05 00:13:29;;;;;;;9.15;7.10;;;7.60;99.90;;;;;;5115253;28;20098;-49
2022/04/05 00:15:54;;;;;;;7.88;7.07;;;7.60;99.90;;;;;;5115614;28;20016;-45
2022/04/05 00:18:20;;;;;;;8.57;7.50;;;7.50;99.90;;;;;;5115264;28;20024;-48
2022/04/05 00:20:45;;;;;;;13.05;7.47;;;7.50;99.90;;;;;;5115118;28;20497;-46
2022/04/05 00:23:11;;;;;;;7.78;7.07;;;7.50;99.90;;;;;;5114700;28;20027;-48
2022/04/05 00:25:37;;;;;;;9.05;6.78;;;7.50;99.90;;;;;;5115384;28;20023;-49
2022/04/05 00:28:03;;;;;;;7.50;6.80;;;7.50;99.90;;;;;;5115092;28;20028;-45
2022/04/05 00:30:29;;;;;;;11.25;7.03;;;7.50;99.90;;;;;;5115215;28;20020;-46
2022/04/05 00:32:54;;;;;;;6.88;6.10;;;7.40;99.90;;;;;;5115429;28;20050;-45
2022/04/05 00:35:21;;;;;;;7.22;6.53;;;7.50;99.90;;;;;;5115050;28;20380;-45
2022/04/05 00:37:47;;;;;;;11.00;6.90;;;7.50;99.90;;;;;;5114737;28;20016;-46
2022/04/05 00:40:13;;;;;;;7.82;6.28;;;7.50;99.90;;;;;;5114976;28;20015;-47
2022/04/05 00:42:39;;;;;;;6.93;6.22;;;7.50;99.90;;;;;;5115034;28;20478;-46
2022/04/05 00:45:05;;;;;;;11.75;6.53;;;7.50;99.90;;;;;;5114823;28;20022;-49
2022/04/05 00:47:31;;;;;;;13.13;7.18;;;7.50;99.90;;;;;;5114487;28;20478;-47
2022/04/05 00:49:57;;;;;;;10.27;6.95;;;7.50;99.90;;;;;;5114534;28;20031;-46
2022/04/05 00:52:23;;;;;;;8.02;6.53;;;7.50;99.90;;;;;;5114558;28;20024;-48
2022/04/05 00:54:50;;;;;;;8.73;6.30;;;7.50;99.90;;;;;;5094975;28;20406;-50
2022/04/05 00:57:18;;;;;;;8.18;7.40;;;7.50;99.90;;;;;;5112895;28;20490;-45
2022/04/05 00:59:52;;;;;;;7.93;7.13;;;7.50;99.90;;;;;;5113252;28;20031;-47
2022/04/05 01:02:19;;;;;;;9.95;7.60;;;7.50;99.90;;;;;;5114686;28;20474;-45
2022/04/05 01:04:47;;;;;;;8.15;7.32;;;7.50;99.90;;;;;;5114300;28;20398;-44
2022/04/05 01:07:17;;;;;;;10.80;7.18;;;7.40;99.90;;;;;;5114186;28;20119;-45
2022/04/05 01:09:44;;;;;;;9.30;6.93;;;7.40;99.90;;;;;;5114218;28;20289;-46
2022/04/05 01:12:11;;;;;;;7.55;6.75;;;7.40;99.90;;;;;;5114313;28;20027;-47
2022/04/05 01:14:40;;;;;;;8.40;6.97;;;7.40;99.90;;;;;;5114213;28;20053;-45
2022/04/05 01:17:07;;;;;;;7.28;6.57;;;7.40;99.90;;;;;;5095741;28;20060;-46
2022/04/05 01:19:33;;;;;;;7.65;6.90;;;7.40;99.90;;;;;;5111946;28;20081;-44
2022/04/05 01:22:00;;;;;;;8.35;5.85;;;7.40;99.90;;;;;;5114414;28;20470;-46
2022/04/05 01:24:26;;;;;;;8.77;6.82;;;7.40;99.90;;;;;;5113218;28;20066;-44
2022/04/05 01:26:54;;;;;;;7.32;6.50;;;7.50;99.90;;;;;;5111616;28;20027;-43
2022/04/05 01:29:21;;;;;;;8.75;6.50;;;7.40;99.90;;;;;;5113261;28;20118;-44
2022/04/05 01:31:50;;;;;;;8.55;7.07;;;7.50;99.90;;;;;;5113844;28;20084;-45
2022/04/05 01:34:19;;;;;;;7.78;6.50;;;7.50;99.90;;;;;;5095616;28;20517;-44
2022/04/05 01:36:50;;;;;;;9.73;7.15;;;7.50;99.90;;;;;;5095958;28;20028;-45
2022/04/05 01:39:17;;;;;;;8.55;7.50;;;7.50;99.90;;;;;;5113862;28;20027;-45
2022/04/05 01:41:44;;;;;;;7.82;7.13;;;7.50;99.90;;;;;;5113692;28;20024;-50
2022/04/05 01:44:11;;;;;;;7.30;6.57;;;7.50;99.90;;;;;;5113835;28;20031;-45
2022/04/05 01:46:37;;;;;;;8.65;6.68;;;7.50;99.90;;;;;;5113745;28;20055;-47
2022/04/05 01:49:07;;;;;;;8.48;6.38;;;7.50;99.90;;;;;;5113435;28;20100;-46
2022/04/05 01:51:35;;;;;;;7.95;5.82;;;7.50;99.90;;;;;;5113675;28;20016;-45
2022/04/05 01:54:05;;;;;;;8.18;6.13;;;7.50;99.90;;;;;;5113619;28;20065;-43
2022/04/05 01:56:39;;;;;;;8.70;6.25;;;7.50;99.90;;;;;;5113463;28;20016;-45
2022/04/05 01:59:05;;;;;;;5.90;5.13;;;7.50;99.90;;;;;;5113095;28;20032;-47
2022/04/05 02:01:30;;;;;;;6.93;5.40;;;7.50;99.90;;;;;;5113489;28;20498;-49
2022/04/05 02:03:56;;;;;;;6.00;5.43;;;7.50;99.90;;;;;;5112781;28;20036;-43
2022/04/05 02:06:22;;;;;;;6.53;4.97;;;7.50;99.90;;;;;;5095122;28;20024;-44
2022/04/05 02:08:47;;;;;;;7.13;5.50;;;7.50;99.90;;;;;;5112828;28;20058;-46
2022/04/05 02:11:13;;;;;;;7.40;6.00;;;7.50;99.90;;;;;;5113359;28;20058;-47
2022/04/05 02:13:38;;;;;;;11.63;8.07;;;7.50;99.90;;;;;;5113196;28;20020;-43
2022/04/05 02:16:04;;;;;;;6.82;6.13;;;7.50;99.90;;;;;;5113184;28;20403;-47
2022/04/05 02:18:30;;;;;;;8.07;5.60;;;7.50;99.90;;;;;;5112865;28;20020;-44
2022/04/05 02:20:56;;;;;;;8.02;5.22;;;7.40;99.90;;;;;;5112914;28;20046;-47
2022/04/05 02:23:22;;;;;;;5.50;5.00;;;7.40;99.90;;;;;;5112858;28;20031;-44
2022/04/05 02:25:47;;;;;;;6.68;5.68;;;7.40;99.90;;;;;;5112929;28;20387;-46
2022/04/05 02:28:13;;;;;;;9.65;5.95;;;7.40;99.90;;;;;;5112563;28;20084;-45
2022/04/05 02:30:39;;;;;;;9.32;5.30;;;7.50;99.90;;;;;;5112477;28;20025;-45
2022/04/05 02:33:05;;;;;;;9.73;5.85;;;7.40;99.90;;;;;;5112723;28;20556;-43
2022/04/05 02:35:30;;;;;;;5.30;4.78;;;7.50;99.90;;;;;;5094469;28;20028;-43
2022/04/05 02:37:59;;;;;;;5.55;5.05;;;7.50;99.90;;;;;;5112583;28;20038;-44
2022/04/05 02:40:25;;;;;;;5.63;4.75;;;7.50;99.90;;;;;;5094537;28;20027;-45
2022/04/05 02:42:51;;;;;;;5.43;4.72;;;7.40;99.90;;;;;;5112654;28;20018;-44
2022/04/05 02:45:17;;;;;;;5.40;4.90;;;7.50;99.90;;;;;;5112611;28;20106;-43
2022/04/05 02:47:42;;;;;;;5.07;4.35;;;7.50;99.90;;;;;;5093924;28;20024;-43
2022/04/05 02:50:09;;;;;;;8.05;5.32;;;7.40;99.90;;;;;;5112465;28;20028;-45
2022/04/05 02:52:35;;;;;;;5.20;4.50;;;7.50;99.90;;;;;;5112732;28;20020;-44
2022/04/05 02:55:01;;;;;;;5.65;4.70;;;7.50;99.90;;;;;;5112457;28;20031;-44
2022/04/05 02:57:26;;;;;;;5.10;4.60;;;7.50;99.90;;;;;;5112164;28;20028;-44
2022/04/05 02:59:52;;;;;;;5.22;4.72;;;7.50;99.90;;;;;;5112540;28;20043;-44
2022/04/05 03:02:17;;;;;;;5.07;4.60;;;7.50;99.90;;;;;;5112430;28;20059;-49
2022/04/05 03:04:43;;;;;;;5.57;5.05;;;7.50;99.90;;;;;;5112450;28;20023;-45
2022/04/05 03:07:08;;;;;;;5.00;4.57;;;7.60;99.90;;;;;;5112689;28;20042;-44
2022/04/05 03:09:34;;;;;;;5.45;4.95;;;7.50;99.90;;;;;;5112340;28;20118;-44
2022/04/05 03:11:59;;;;;;;4.88;4.47;;;7.50;99.90;;;;;;5112125;28;20501;-45
2022/04/05 03:14:25;;;;;;;5.13;4.63;;;7.60;99.90;;;;;;5111692;28;20034;-44
2022/04/05 03:16:50;;;;;;;5.35;4.85;;;7.50;99.90;;;;;;5111608;28;20024;-44
2022/04/05 03:19:16;;;;;;;5.72;5.20;;;7.50;99.90;;;;;;5111879;28;20027;-46
2022/04/05 03:21:41;;;;;;;5.32;4.82;;;7.50;99.90;;;;;;5093651;28;20424;-46
2022/04/05 03:24:08;;;;;;;5.68;4.50;;;7.50;99.90;;;;;;5112098;28;20031;-44
2022/04/05 03:26:34;;;;;;;5.30;4.90;;;7.50;99.90;;;;;;5112130;28;20062;-44
2022/04/05 03:29:00;;;;;;;5.57;5.07;;;7.50;99.90;;;;;;5111529;28;20057;-45
2022/04/05 03:31:25;;;;;;;5.13;4.63;;;7.50;99.90;;;;;;5111594;28;20019;-45
2022/04/05 03:33:51;;;;;;;5.50;5.00;;;7.50;99.90;;;;;;5111996;28;20387;-44
2022/04/05 03:36:16;;;;;;;5.15;4.68;;;7.50;99.90;;;;;;5112266;28;20031;-48
2022/04/05 03:38:42;;;;;;;5.97;5.47;;;7.50;99.90;;;;;;5111618;28;20034;-45
2022/04/05 03:41:07;;;;;;;5.30;4.80;;;7.50;99.90;;;;;;5111875;28;20027;-43
2022/04/05 03:43:33;;;;;;;7.30;5.30;;;7.60;99.90;;;;;;5111844;28;20032;-43
2022/04/05 03:46:20;;;;;;;5.07;4.68;;;7.60;99.90;;;;;;5111815;28;20039;-45
2022/04/05 03:48:45;;;;;;;5.55;4.93;;;7.50;99.90;;;;;;5109349;28;20027;-44
2022/04/05 03:51:11;;;;;;;5.63;5.20;;;7.50;99.90;;;;;;5112012;28;20023;-44
2022/04/05 03:53:37;;;;;;;5.50;5.00;;;7.50;99.90;;;;;;5112646;28;20058;-44
2022/04/05 03:56:03;;;;;;;5.45;4.72;;;7.60;99.90;;;;;;5112235;28;20024;-44
2022/04/05 03:58:28;;;;;;;5.57;5.07;;;7.60;99.90;;;;;;5111982;28;20474;-44
2022/04/05 04:00:53;;;;;;;5.80;5.30;;;7.50;99.90;;;;;;5111496;28;20043;-45
2022/04/05 04:03:19;;;;;;;5.47;4.97;;;7.50;99.90;;;;;;5093362;28;20027;-47
2022/04/05 04:05:45;;;;;;;5.75;5.25;;;7.60;99.90;;;;;;5111768;28;20380;-44
2022/04/05 04:08:10;;;;;;;5.22;4.70;;;7.50;99.90;;;;;;5111225;28;20055;-46
2022/04/05 04:10:36;;;;;;;5.38;4.85;;;7.50;99.90;;;;;;5111579;28;20115;-47
2022/04/05 04:13:01;;;;;;;4.90;4.50;;;7.50;99.90;;;;;;5111556;28;20027;-47
2022/04/05 04:15:27;;;;;;;7.13;4.57;;;7.50;99.90;;;;;;5111338;28;20073;-46
2022/04/05 04:17:52;;;;;;;4.57;4.18;;;7.50;99.90;;;;;;5111122;28;20024;-46
2022/04/05 04:20:18;;;;;;;5.05;4.55;;;7.60;99.90;;;;;;5111415;28;20024;-46
2022/04/05 04:22:43;;;;;;;5.20;4.70;;;7.60;99.90;;;;;;5111388;28;20051;-46
2022/04/05 04:25:09;;;;;;;4.38;4.05;;;7.60;99.90;;;;;;5111077;28;20107;-44
2022/04/05 04:27:35;;;;;;;4.38;4.07;;;7.60;99.90;;;;;;5114041;28;20475;-44
2022/04/05 04:30:01;;;;;;;4.95;4.55;;;7.60;99.90;;;;;;5115095;28;20062;-45
2022/04/05 04:32:26;;;;;;;4.57;4.18;;;7.60;99.90;;;;;;5115103;28;20028;-44
2022/04/05 04:34:52;;;;;;;4.78;4.38;;;7.60;99.90;;;;;;5115232;28;20104;-45
2022/04/05 04:37:17;;;;;;;4.03;3.63;;;7.60;99.90;;;;;;5114985;28;20020;-47
2022/04/05 04:39:43;;;;;;;4.60;4.20;;;7.60;99.90;;;;;;5115044;28;20023;-49
2022/04/05 04:42:09;;;;;;;4.90;4.35;;;7.60;99.90;;;;;;5115117;28;20032;-46
2022/04/05 04:44:35;;;;;;;4.95;4.10;;;7.60;99.90;;;;;;5115021;28;20027;-48
2022/04/05 04:47:00;;;;;;;4.65;4.20;;;7.70;99.90;;;;;;5114645;28;20042;-45
2022/04/05 04:49:26;;;;;;;4.22;3.92;;;7.60;99.90;;;;;;5114893;28;20028;-44
2022/04/05 04:51:51;;;;;;;4.90;4.07;;;7.70;99.90;;;;;;5114800;28;20047;-40
2022/04/05 04:54:17;;;;;;;5.32;4.20;;;7.70;99.90;;;;;;5114819;28;20023;-44
2022/04/05 04:56:42;;;;;;;5.47;4.97;;;7.70;99.90;;;;;;5114720;28;20024;-43
2022/04/05 04:59:08;;;;;;;5.53;4.65;;;7.80;99.90;;;;;;5114266;28;20078;-49
2022/04/05 05:01:34;;;;;;;4.88;4.47;;;7.70;99.90;;;;;;5128147;22;20052;-46
2022/04/05 05:04:00;;;;;;;4.95;4.50;;;7.70;99.90;;;;;;5114645;28;20047;-47
2022/04/05 05:06:25;;;;;;;5.20;4.70;;;7.70;99.90;;;;;;5114822;28;20166;-45
2022/04/05 05:08:51;;;;;;;4.60;4.20;;;7.70;99.90;;;;;;5114507;28;20466;-44
2022/04/05 05:11:16;;;;;;;5.03;4.63;;;7.70;99.90;;;;;;5114535;28;20020;-50
2022/04/05 05:13:42;;;;;;;5.53;5.10;;;7.70;99.90;;;;;;5114433;28;20015;-48
2022/04/05 05:16:07;;;;;;;5.50;5.00;;;7.70;99.90;;;;;;5096176;28;20047;-48
2022/04/05 05:18:33;;;;;;;5.43;5.00;;;7.70;99.90;;;;;;5108552;28;20496;-47
2022/04/05 05:20:59;;;;;;;5.25;4.82;;;7.70;99.90;;;;;;5105038;28;20030;-42
2022/04/05 05:23:24;;;;;;;6.03;5.43;;;7.70;99.90;;;;;;5114232;28;20112;-46
2022/04/05 05:25:50;;;;;;;6.10;5.57;;;7.70;99.90;;;;;;5114051;28;20368;-47
2022/04/05 05:28:15;;;;;;;7.28;5.47;;;7.80;99.90;;;;;;5113711;28;20483;-48
2022/04/05 05:30:41;;;;;;;17.85;12.35;;;7.70;99.90;;;;;;5113681;28;20491;-51
2022/04/05 05:33:07;;;;;;;17.63;13.10;;;7.70;99.90;;;;;;5112801;28;20022;-44
2022/04/05 05:35:33;;;;;;;6.28;5.65;;;7.70;99.90;;;;;;5113402;28;20493;-48
2022/04/05 05:37:59;;;;;;;6.78;5.82;;;7.70;99.90;;;;;;5112336;28;20055;-47
2022/04/05 05:40:25;;;;;;;7.45;5.88;;;7.70;99.90;;;;;;5113155;28;21349;-46
2022/04/05 05:42:57;;;;;;;6.93;5.13;;;7.60;99.90;;;;;;5105945;28;20121;-45
2022/04/05 05:45:24;;;;;;;7.45;6.75;;;7.70;99.90;;;;;;5093721;28;20549;-47
2022/04/05 05:47:49;;;;;;;7.82;5.57;;;7.80;99.90;;;;;;5108888;28;20106;-48
2022/04/05 05:50:15;;;;;;;6.93;5.68;;;7.70;99.90;;;;;;5111559;28;20117;-46
2022/04/05 05:52:42;;;;;;;5.72;5.13;;;7.70;99.90;;;;;;5113747;28;20020;-47
2022/04/05 05:55:09;;;;;;;6.82;5.13;;;7.70;99.90;;;;;;5112621;28;20084;-49
2022/04/05 05:57:35;;;;;;;6.38;5.78;;;7.70;99.90;;;;;;5112722;28;20020;-47
2022/04/05 06:00:02;;;;;;;6.20;5.50;;;7.80;99.90;;;;;;5113039;28;20034;-47
2022/04/05 06:02:28;;;;;;;5.40;4.90;;;7.80;99.90;;;;;;5113583;28;20034;-43
2022/04/05 06:04:53;;;;;;;6.00;5.40;;;7.70;99.90;;;;;;5112722;28;20024;-48
2022/04/05 06:07:19;;;;;;;5.55;5.05;;;7.70;99.90;;;;;;5112594;28;20379;-50
2022/04/05 06:09:45;;;;;;;6.38;5.07;;;7.70;99.90;;;;;;5113355;28;20068;-43
2022/04/05 06:12:10;;;;;;;5.13;4.63;;;7.70;99.90;;;;;;5095128;28;20055;-42
2022/04/05 06:14:36;;;;;;;5.55;5.03;;;7.80;99.90;;;;;;5113275;28;20398;-44
2022/04/05 06:17:01;;;;;;;5.00;4.60;;;7.70;99.90;;;;;;5113144;28;20030;-52
2022/04/05 06:19:27;;;;;;;5.97;5.45;;;7.70;99.90;;;;;;5113555;28;20043;-44
2022/04/05 06:21:52;;;;;;;6.85;5.95;;;7.70;99.90;;;;;;5113479;28;20045;-40
2022/04/05 06:24:19;;;;;;;7.38;6.00;;;7.80;99.90;;;;;;5112488;28;20081;-47
2022/04/05 06:26:44;;;;;;;6.40;5.80;;;7.80;99.90;;;;;;5112856;28;20069;-45
2022/04/05 06:29:10;;;;;;;6.32;5.72;;;7.80;99.90;;;;;;5112871;28;20445;-46
2022/04/05 06:31:35;;;;;;;6.55;5.95;;;7.80;99.90;;;;;;5113159;28;20375;-44
2022/04/05 06:34:02;;;;;;;6.85;6.25;;;7.70;99.90;;;;;;5113143;28;20030;-43
2022/04/05 06:36:29;;;;;;;7.28;6.57;;;7.70;99.90;;;;;;5114604;28;20023;-42
2022/04/05 06:38:54;;;;;;;7.32;6.63;;;7.70;99.90;;;;;;5115383;28;20023;-42
2022/04/05 06:41:20;;;;;;;9.20;6.50;;;7.70;99.90;;;;;;5112981;28;20053;-44
2022/04/05 06:43:46;;;;;;;10.70;6.68;;;7.70;99.90;;;;;;5112755;28;20030;-42
2022/04/05 06:46:12;;;;;;;7.75;6.85;;;7.70;99.90;;;;;;5113013;28;20038;-42
2022/04/05 06:48:37;;;;;;;8.68;7.47;;;7.70;99.90;;;;;;5115201;28;20028;-43
2022/04/05 06:51:03;;;;;;;8.73;7.40;;;7.70;99.90;;;;;;5114589;28;20076;-45
2022/04/05 06:53:30;;;;;;;9.45;7.50;;;7.60;99.90;;;;;;5114661;28;20494;-42
2022/04/05 06:55:55;;;;;;;8.13;6.45;;;7.60;99.90;;;;;;5115246;28;20020;-44
2022/04/05 06:58:21;;;;;;;7.60;6.90;;;7.60;99.90;;;;;;5114412;28;20414;-43
2022/04/05 07:00:46;;;;;;;7.38;6.63;;;7.60;99.90;;;;;;5112764;28;20045;-43
2022/04/05 07:03:12;;;;;;;8.13;6.25;;;7.60;99.90;;;;;;5112743;28;20023;-43
2022/04/05 07:05:37;;;;;;;6.95;6.35;;;7.60;99.90;;;;;;5112910;28;20110;-45
2022/04/05 07:08:03;;;;;;;11.23;7.10;;;7.60;99.90;;;;;;5112375;28;20437;-42
2022/04/05 07:10:29;;;;;;;7.00;6.30;;;7.60;99.90;;;;;;5112456;28;20028;-44
2022/04/05 07:12:54;;;;;;;6.70;6.05;;;7.60;99.90;;;;;;5112473;28;20027;-45
2022/04/05 07:15:20;;;;;;;5.88;5.30;;;7.50;99.90;;;;;;5112615;28;20037;-47
2022/04/05 07:17:46;;;;;;;7.97;6.03;;;7.60;99.90;;;;;;5112460;28;20475;-43
2022/04/05 07:20:11;;;;;;;8.60;6.32;;;7.60;99.90;;;;;;5112974;28;20023;-43
2022/04/05 07:22:45;;;;;;;13.00;6.10;;;7.60;99.90;;;;;;5112650;28;20052;-45
2022/04/05 07:25:11;;;;;;;7.03;6.32;;;7.60;99.90;;;;;;5111697;28;20441;-42
2022/04/05 07:27:36;;;;;;;7.22;5.53;;;7.60;99.90;;;;;;5111956;28;20077;-43
2022/04/05 07:30:03;;;;;;;5.22;4.72;;;7.60;99.90;;;;;;5093874;28;20402;-44
2022/04/05 07:32:37;;;;;;;8.90;5.43;;;7.60;99.90;;;;;;5112218;28;20031;-44
2022/04/05 07:35:03;;;;;;;6.13;5.57;;;7.60;99.90;;;;;;5111844;28;20027;-47
2022/04/05 07:37:30;;;;;;;6.03;5.25;;;7.60;99.90;;;;;;5106905;28;20035;-43
2022/04/05 07:39:58;;;;;;;5.95;5.45;;;7.70;99.90;;;;;;5111955;28;20119;-48
2022/04/05 07:42:24;;;;;;;5.50;5.00;;;7.70;99.90;;;;;;5110785;28;20372;-47
2022/04/05 07:44:49;;;;;;;5.68;5.18;;;7.70;99.90;;;;;;5111013;28;20050;-51
2022/04/05 07:47:15;;;;;;;5.28;4.78;;;7.80;99.90;;;;;;5111128;28;20031;-44
2022/04/05 07:49:40;;;;;;;5.25;4.75;;;7.80;99.90;;;;;;5111180;28;20024;-45
2022/04/05 07:52:06;;;;;;;5.75;5.15;;;7.90;99.90;;;;;;5110985;28;20483;-47
2022/04/05 07:54:32;;;;;;;5.53;4.95;;;7.80;99.90;;;;;;5113727;28;20035;-44
2022/04/05 07:56:58;;;;;;;4.80;4.40;;;7.90;99.90;;;;;;5132165;28;20023;-42
2022/04/05 07:59:23;;;;;;;5.20;4.70;;;7.90;99.90;;;;;;5114704;28;20015;-43
2022/04/05 08:01:49;;;;;;;4.63;4.22;;;7.80;99.90;;;;;;5112623;28;20433;-43
2022/04/05 08:04:15;;;;;;;6.15;4.03;;;7.90;99.90;;;;;;5113953;28;20085;-47
2022/04/05 08:06:40;;;;;;;5.00;4.53;;;7.90;99.90;;;;;;5114701;28;20051;-49
2022/04/05 08:09:06;;;;;;;4.18;3.85;;;8.00;99.90;;;;;;5114759;28;20024;-47
2022/04/05 08:11:34;;;;;;;3.90;3.60;;;8.00;99.90;;;;;;5115177;28;20051;-47
2022/04/05 08:14:00;;;;;;;3.83;3.53;;;8.00;99.90;;;;;;5114501;28;20090;-46
2022/04/05 08:16:25;;;;;;;4.22;3.92;;;8.00;99.90;;;;;;5114908;28;20107;-47
2022/04/05 08:18:51;;;;;;;3.75;3.40;;;8.00;99.90;;;;;;5115375;28;20031;-48
2022/04/05 08:21:18;;;;;;;4.40;4.00;;;8.10;99.90;;;;;;5096994;28;20023;-48
2022/04/05 08:23:44;;;;;;;4.28;3.65;;;8.10;99.90;;;;;;5115247;28;20036;-43
2022/04/05 08:26:09;;;;;;;4.03;3.67;;;8.00;99.90;;;;;;5114475;28;20032;-51
2022/04/05 08:28:35;;;;;;;3.55;3.28;;;8.00;99.90;;;;;;5114055;28;20031;-47
2022/04/05 08:31:01;;;;;;;3.90;3.50;;;8.10;99.90;;;;;;5114896;28;20020;-43
2022/04/05 08:33:27;;;;;;;3.08;2.88;;;8.20;99.90;;;;;;5113994;28;20024;-46
2022/04/05 08:35:54;;;;;;;3.15;2.95;;;8.20;99.90;;;;;;5096171;28;20020;-47
2022/04/05 08:38:19;;;;;;;3.08;2.88;;;8.30;99.90;;;;;;5114835;28;20031;-47
2022/04/05 08:40:45;;;;;;;3.33;3.13;;;8.40;99.90;;;;;;5114082;28;20031;-46
2022/04/05 08:43:11;;;;;;;3.60;3.30;;;8.40;99.90;;;;;;5113667;28;20054;-46
2022/04/05 08:45:37;;;;;;;2.85;2.65;;;8.40;99.90;;;;;;5096666;28;20483;-47
2022/04/05 08:48:09;;;;;;;3.10;2.90;;;8.40;99.90;;;;;;5096712;28;20503;-46
2022/04/05 08:50:35;;;;;;;3.53;3.30;;;8.50;99.90;;;;;;5096589;28;20028;-48
2022/04/05 08:53:01;;;;;;;3.30;3.10;;;8.40;99.90;;;;;;5096601;28;20026;-51
2022/04/05 08:55:28;;;;;;;3.20;3.00;;;8.50;99.90;;;;;;5096320;28;20371;-48
2022/04/05 08:57:55;;;;;;;3.50;3.20;;;8.50;99.90;;;;;;5114133;28;20501;-53
2022/04/05 09:00:23;;;;;;;4.15;3.17;;;8.60;99.90;;;;;;5113072;28;20039;-51
2022/04/05 09:02:56;;;;;;;3.20;2.92;;;8.60;99.90;;;;;;5094403;28;20031;-44
2022/04/05 09:05:33;;;;;;;3.63;3.33;;;8.60;99.90;;;;;;5103617;28;20112;-47
2022/04/05 09:08:30;;;;;;;3.53;3.15;;;8.70;99.90;;;;;;5096415;28;20055;-47
2022/04/05 09:11:14;;;;;;;3.55;3.30;;;8.70;99.90;;;;;;5096520;28;20027;-51
2022/04/05 09:13:40;;;;;;;3.10;2.90;;;8.70;99.90;;;;;;5112914;28;20478;-47
2022/04/05 09:16:08;;;;;;;3.50;3.22;;;8.70;99.90;;;;;;5114026;28;20039;-43
2022/04/05 09:18:44;;;;;;;3.88;3.58;;;8.80;99.90;;;;;;5109318;28;20016;-52
2022/04/05 09:21:11;;;;;;;3.08;2.88;;;8.90;99.90;;;;;;5108895;28;20025;-48
2022/04/05 09:23:39;;;;;;;3.63;3.33;;;8.80;99.90;;;;;;5092956;28;20053;-46
2022/04/05 09:26:07;;;;;;;3.00;2.80;;;8.90;99.90;;;;;;5109527;28;20032;-53
2022/04/05 09:28:42;;;;;;;3.47;3.17;;;8.90;99.90;;;;;;5111818;28;20114;-44
2022/04/05 09:31:10;;;;;;;3.47;3.20;;;9.00;99.90;;;;;;5113203;28;20020;-42
2022/04/05 09:33:38;;;;;;;3.53;3.22;;;9.00;99.90;;;;;;5113404;28;20051;-38
2022/04/05 09:36:14;;;;;;;3.35;3.08;;;9.10;99.90;;;;;;5113914;28;20394;-39
2022/04/05 09:38:43;;;;;;;4.85;4.35;;;9.10;99.90;;;;;;5113789;28;20031;-42
2022/04/05 09:41:29;;;;;;;2.72;2.53;;;9.10;99.90;;;;;;5113710;28;20031;-41
2022/04/05 09:43:59;;;;;;;3.20;3.00;;;9.20;99.90;;;;;;5113982;28;20032;-41
2022/04/05 09:46:25;;;;;;;2.97;2.78;;;9.20;99.90;;;;;;5113763;28;20406;-41
2022/04/05 09:49:11;;;;;;;3.83;2.60;;;9.30;99.90;;;;;;5113795;28;20106;-45
2022/04/05 09:51:42;;;;;;;2.65;2.45;;;9.40;99.90;;;;;;5095946;28;20072;-40
2022/04/05 09:54:16;;;;;;;2.60;2.40;;;9.40;99.90;;;;;;5095348;28;20475;-43
2022/04/05 09:56:44;;;;;;;4.13;2.15;;;9.50;99.90;;;;;;5113666;28;20534;-38
2022/04/05 09:59:18;;;;;;;2.30;2.20;;;9.40;99.90;;;;;;5095077;28;20038;-41
2022/04/05 10:01:45;;;;;;;2.03;1.92;;;9.40;99.90;;;;;;5113605;28;20045;-40
2022/04/05 10:04:14;;;;;;;3.53;2.00;;;9.50;99.90;;;;;;5113838;28;20031;-41
2022/04/05 10:06:44;;;;;;;2.50;2.30;;;9.50;99.90;;;;;;5113529;28;20053;-40
2022/04/05 10:09:11;;;;;;;2.20;2.10;;;9.70;99.90;;;;;;5113574;28;20375;-43
2022/04/05 10:11:38;;;;;;;2.40;2.20;;;9.70;99.90;;;;;;5094892;28;20152;-42
2022/04/05 10:14:05;;;;;;;2.60;2.40;;;9.70;99.90;;;;;;5113665;28;20023;-37
2022/04/05 10:16:33;;;;;;;2.70;2.50;;;9.90;99.90;;;;;;5113455;28;20102;-37
2022/04/05 10:19:05;;;;;;;2.80;2.60;;;9.90;99.90;;;;;;5113385;28;20115;-43
2022/04/05 10:21:36;;;;;;;2.38;2.22;;;10.00;99.90;;;;;;5112882;28;20020;-44
2022/04/05 10:24:03;;;;;;;2.10;2.00;;;10.10;99.90;;;;;;5112902;28;20047;-45
2022/04/05 10:26:32;;;;;;;2.38;2.28;;;10.10;99.90;;;;;;5112946;28;20043;-45
2022/04/05 10:29:01;;;;;;;3.08;2.10;;;10.20;99.90;;;;;;5094150;28;20024;-44
2022/04/05 10:31:57;;;;;;;2.22;2.13;;;10.10;99.90;;;;;;5061085;28;20020;-40
2022/04/05 10:34:34;;;;;;;2.10;2.00;;;10.10;99.90;;;;;;5100639;28;20016;-41
2022/04/05 10:37:17;;;;;;;2.22;2.13;;;10.10;99.90;;;;;;5112398;28;20490;-46
2022/04/05 10:40:03;;;;;;;2.30;2.20;;;10.10;99.90;;;;;;5112691;28;20057;-44
2022/04/05 10:42:40;;;;;;;2.67;2.47;;;10.10;99.90;;;;;;5099673;28;20387;-39
2022/04/05 10:45:12;;;;;;;2.38;2.17;;;10.20;99.90;;;;;;5105230;28;20023;-44
2022/04/05 10:47:59;;;;;;;11.07;9.00;;;10.20;99.90;;;;;;5092023;28;20035;-42
2022/04/05 10:50:26;;;;;;;7.15;5.72;;;10.30;99.90;;;;;;5092310;28;20422;-42
2022/04/05 10:53:12;;;;;;;3.00;2.75;;;10.40;99.90;;;;;;5092458;28;20020;-40
2022/04/05 10:56:07;;;;;;;2.72;2.53;;;10.50;99.90;;;;;;5109341;28;20047;-44
2022/04/05 10:58:47;;;;;;;3.55;3.25;;;10.50;99.90;;;;;;5111242;28;20509;-45
2022/04/05 11:01:25;;;;;;;2.60;2.42;;;10.50;99.90;;;;;;5110870;28;20062;-44
2022/04/05 11:04:10;;;;;;;2.85;2.65;;;10.60;99.90;;;;;;5091788;28;20051;-44
2022/04/05 11:07:06;;;;;;;3.00;2.80;;;10.70;99.90;;;;;;5102952;28;20027;-44
2022/04/05 11:09:33;;;;;;;;;;;10.90;99.90;;;;;;5111711;28;20023;-48
2022/04/05 11:12:02;;;;;;;2.78;2.58;;;10.90;99.90;;;;;;5107216;28;19915;-45
2022/04/05 11:14:45;;;;;;;3.05;2.85;;;11.10;99.90;;;;;;5084963;28;20043;-43
2022/04/05 11:17:14;;;;;;;3.33;3.03;;;11.40;99.90;;;;;;5089386;28;20047;-45
2022/04/05 11:19:48;;;;;;;3.10;2.90;;;11.50;99.90;;;;;;5110399;28;20038;-50
2022/04/05 11:22:19;;;;;;;3.30;2.95;;;11.50;99.90;;;;;;5109658;28;20406;-42
2022/04/05 11:24:55;;;;;;;3.20;3.00;;;11.40;99.90;;;;;;5109977;28;20031;-52
2022/04/05 11:27:48;;;;;;;3.53;3.10;;;11.40;99.90;;;;;;5107314;28;20418;-52
2022/04/05 11:30:23;;;;;;;4.05;3.65;;;11.20;99.90;;;;;;5097990;28;20486;-57
2022/04/05 11:33:09;;;;;;;3.73;3.43;;;11.10;99.90;;;;;;5106112;28;20394;-49
2022/04/05 11:36:07;;;;;;;3.85;3.55;;;11.10;99.90;;;;;;5103596;28;20041;-49
2022/04/05 11:38:47;;;;;;;4.43;4.07;;;11.10;99.90;;;;;;5104674;28;20032;-49
2022/04/05 11:41:21;;;;;;;4.30;3.58;;;11.00;99.90;;;;;;5105842;28;20379;-40
2022/04/05 11:43:52;;;;;;;3.80;3.50;;;11.00;99.90;;;;;;5110950;28;20034;-42
2022/04/05 11:46:27;;;;;;;4.00;3.70;;;10.90;99.90;;;;;;5112080;28;20136;-41
2022/04/05 11:49:02;;;;;;;4.10;3.70;;;10.90;99.90;;;;;;5106820;28;20032;-49
2022/04/05 11:51:34;;;;;;;4.47;4.07;;;10.90;99.90;;;;;;5111182;28;20028;-42
2022/04/05 11:54:14;;;;;;;8.40;4.18;;;10.90;99.90;;;;;;5111005;28;20310;-40
2022/04/05 11:56:41;;;;;;;4.50;4.10;;;10.90;99.90;;;;;;5111761;28;20464;-45
2022/04/05 11:59:08;;;;;;;4.50;4.10;;;10.90;99.90;;;;;;5130204;22;20391;-41
2022/04/05 12:01:37;;;;;;;4.05;3.75;;;10.90;99.90;;;;;;5111066;28;20103;-44
2022/04/05 12:04:08;;;;;;;4.60;4.20;;;10.90;99.90;;;;;;5111813;28;20024;-45
2022/04/05 12:06:38;;;;;;;4.82;4.43;;;10.90;99.90;;;;;;5112312;28;20024;-46
2022/04/05 12:09:09;;;;;;;4.78;4.38;;;10.90;99.90;;;;;;5114984;28;20038;-51
2022/04/05 12:11:37;;;;;;;4.53;4.15;;;10.90;99.90;;;;;;5095524;28;20394;-50
2022/04/05 12:14:09;;;;;;;5.55;5.05;;;10.90;99.90;;;;;;5113563;28;20149;-52
2022/04/05 12:16:52;;;;;;;4.97;4.57;;;10.90;99.90;;;;;;5112851;28;20016;-47
2022/04/05 12:19:21;;;;;;;5.60;5.13;;;10.80;99.90;;;;;;5095213;28;20060;-50
2022/04/05 12:21:54;;;;;;;5.18;4.68;;;10.80;99.90;;;;;;5112436;28;20032;-45
2022/04/05 12:24:20;;;;;;;5.78;5.10;;;10.90;99.90;;;;;;5093461;28;20083;-47
2022/04/05 12:26:45;;;;;;;5.45;4.95;;;10.90;99.90;;;;;;5111470;28;20044;-44
2022/04/05 12:29:11;;;;;;;5.32;4.82;;;10.90;99.90;;;;;;5093085;28;20482;-46
2022/04/05 12:31:36;;;;;;;5.03;4.55;;;10.90;99.90;;;;;;5111728;28;20023;-46
2022/04/05 12:34:13;;;;;;;46.03;27.58;;;11.00;99.90;;;;;;5093303;28;20022;-45
2022/04/05 12:36:44;;;;;;;5.88;5.30;;;11.00;99.90;;;;;;5111773;28;20027;-48
2022/04/05 12:39:25;;;;;;;5.72;5.22;;;11.10;99.90;;;;;;5092922;28;20020;-45
2022/04/05 12:42:03;;;;;;;6.50;5.90;;;11.10;99.90;;;;;;5111607;28;20036;-48
2022/04/05 12:44:37;;;;;;;5.97;5.38;;;11.10;99.90;;;;;;5111411;28;20024;-48
2022/04/05 12:47:09;;;;;;;6.32;5.55;;;11.10;99.90;;;;;;5111474;28;20395;-49
2022/04/05 12:49:38;;;;;;;4.93;4.53;;;11.20;99.90;;;;;;5114847;28;20023;-46
2022/04/05 12:52:24;;;;;;;5.55;4.60;;;11.30;99.90;;;;;;5115288;28;20482;-52
2022/04/05 12:54:59;;;;;;;;;;;11.30;99.90;;;;;;5115567;28;20047;-47
2022/04/05 12:57:24;;;;;;;5.32;4.82;;;11.40;99.90;;;;;;5096202;28;19911;-47
2022/04/05 12:59:51;;;;;;;4.70;4.30;;;11.50;99.90;;;;;;5114684;28;20509;-52
2022/04/05 13:02:27;;;;;;;5.63;5.13;;;11.60;99.90;;;;;;5114711;28;20024;-48